createdAt,value
2023-02-11T00:01:00.634Z,0.23
2023-02-11T00:03:27.667Z,0.27
2023-02-11T00:06:03.085Z,0.28
2023-02-11T00:08:30.155Z,0.34
2023-02-11T00:10:58.276Z,0.24
2023-02-11T00:13:25.893Z,0.29
2023-02-11T00:15:53.637Z,0.24
2023-02-11T00:18:20.700Z,-0.15
2023-02-11T00:20:47.662Z,0.14
2023-02-11T00:23:15.216Z,-0.20
2023-02-11T00:25:44.289Z,0.15
2023-02-11T00:28:12.005Z,0.10
2023-02-11T00:30:41.391Z,0.10
2023-02-11T00:33:09.046Z,0.12
2023-02-11T00:35:38.803Z,0.16
2023-02-11T00:38:08.169Z,0.09
2023-02-11T00:40:35.198Z,-0.05
2023-02-11T00:43:03.906Z,-0.19
2023-02-11T00:45:31.004Z,-0.45
2023-02-11T00:47:58.295Z,-0.04
2023-02-11T00:50:25.346Z,-0.14
2023-02-11T00:52:52.364Z,-0.12
2023-02-11T00:55:19.460Z,-0.28
2023-02-11T00:57:46.704Z,-0.20
2023-02-11T01:00:17.115Z,-0.32
2023-02-11T01:02:45.051Z,-0.41
2023-02-11T01:05:12.103Z,-0.40
2023-02-11T01:07:39.197Z,-0.53
2023-02-11T01:10:06.592Z,-0.45
2023-02-11T01:12:36.264Z,-0.45
2023-02-11T01:15:04.855Z,-0.48
2023-02-11T01:17:34.248Z,-0.47
2023-02-11T01:20:09.417Z,-0.57
2023-02-11T01:22:39.651Z,-0.80
2023-02-11T01:25:07.975Z,-0.70
2023-02-11T01:27:36.798Z,-0.73
2023-02-11T01:30:06.721Z,-0.74
2023-02-11T01:32:34.228Z,-0.69
2023-02-11T01:35:01.238Z,-0.69
2023-02-11T01:37:33.494Z,-0.73
2023-02-11T01:40:02.266Z,-1.00
2023-02-11T01:42:31.395Z,-0.96
2023-02-11T01:45:01.035Z,-0.87
2023-02-11T01:47:28.141Z,-0.78
2023-02-11T01:50:01.067Z,-0.87
2023-02-11T01:52:39.884Z,-0.84
2023-02-11T01:55:31.661Z,-0.85
2023-02-11T01:58:04.713Z,-0.99
2023-02-11T02:00:39.153Z,-0.97
2023-02-11T02:03:18.164Z,-0.94
2023-02-11T02:06:10.993Z,-0.98
2023-02-11T02:08:41.977Z,-0.97
2023-02-11T02:11:10.805Z,-1.00
2023-02-11T02:13:40.950Z,-0.95
2023-02-11T02:16:16.612Z,-0.93
2023-02-11T02:19:20.646Z,-0.91
2023-02-11T02:22:06.041Z,-0.89
2023-02-11T02:24:56.820Z,-0.83
2023-02-11T02:27:51.533Z,-0.68
2023-02-11T02:30:24.734Z,-0.56
2023-02-11T02:33:21.704Z,-0.56
2023-02-11T02:36:09.419Z,-0.49
2023-02-11T02:39:01.050Z,-0.53
2023-02-11T02:41:34.528Z,-0.52
2023-02-11T02:44:02.053Z,-0.57
2023-02-11T02:46:32.238Z,-0.46
2023-02-11T02:49:00.178Z,-0.46
2023-02-11T02:51:33.189Z,-0.37
2023-02-11T02:54:18.860Z,-0.28
2023-02-11T02:57:08.799Z,-0.84
2023-02-11T02:59:41.482Z,-0.21
2023-02-11T03:02:33.361Z,-0.30
2023-02-11T03:05:12.396Z,-0.18
2023-02-11T03:07:53.933Z,-0.23
2023-02-11T03:10:27.057Z,-0.35
2023-02-11T03:12:56.132Z,-0.35
2023-02-11T03:15:26.908Z,-0.24
2023-02-11T03:17:58.665Z,-0.24
2023-02-11T03:20:28.390Z,-0.15
2023-02-11T03:23:16.476Z,-0.27
2023-02-11T03:25:53.111Z,-0.17
2023-02-11T03:28:29.585Z,-0.19
2023-02-11T03:31:10.525Z,-0.18
2023-02-11T03:33:44.208Z,-0.55
2023-02-11T03:36:18.282Z,-0.24
2023-02-11T03:38:54.076Z,-0.36
2023-02-11T03:41:24.769Z,-0.35
2023-02-11T03:43:57.193Z,-0.37
2023-02-11T03:46:31.514Z,-0.36
2023-02-11T03:49:03.924Z,-0.43
2023-02-11T03:51:32.614Z,-0.40
2023-02-11T03:54:03.684Z,-0.76
2023-02-11T03:56:33.445Z,-0.58
2023-02-11T03:59:00.547Z,-0.50
2023-02-11T04:01:27.716Z,-0.52
2023-02-11T04:03:54.772Z,-0.66
2023-02-11T04:06:21.757Z,-0.63
2023-02-11T04:08:48.747Z,-0.61
2023-02-11T04:11:15.726Z,-0.69
2023-02-11T04:13:42.701Z,-0.59
2023-02-11T04:16:09.735Z,-0.58
2023-02-11T04:18:36.733Z,-0.69
2023-02-11T04:21:03.931Z,-0.62
2023-02-11T04:23:30.933Z,-0.81
2023-02-11T04:25:57.937Z,-0.69
2023-02-11T04:28:25.013Z,-0.86
2023-02-11T04:30:52.051Z,-0.84
2023-02-11T04:33:19.100Z,-0.95
2023-02-11T04:35:46.259Z,-0.94
2023-02-11T04:38:14.137Z,-0.95
2023-02-11T04:40:41.410Z,-1.04
2023-02-11T04:43:08.574Z,-1.11
2023-02-11T04:45:35.572Z,-1.20
2023-02-11T04:48:03.912Z,-1.34
2023-02-11T04:50:31.240Z,-1.20
2023-02-11T04:52:58.255Z,-1.39
2023-02-11T04:55:25.269Z,-1.43
2023-02-11T04:57:52.298Z,-1.37
2023-02-11T05:00:19.327Z,-1.30
2023-02-11T05:02:46.342Z,-1.30
2023-02-11T05:05:13.298Z,-1.33
2023-02-11T05:07:40.346Z,-1.34
2023-02-11T05:10:07.448Z,-1.32
2023-02-11T05:12:34.469Z,-1.35
2023-02-11T05:15:01.468Z,-1.43
2023-02-11T05:17:31.116Z,-1.41
2023-02-11T05:19:58.120Z,-1.41
2023-02-11T05:22:25.133Z,-1.36
2023-02-11T05:24:52.124Z,-1.31
2023-02-11T05:27:19.118Z,-1.30
2023-02-11T05:29:46.300Z,-1.33
2023-02-11T05:32:13.330Z,-1.35
2023-02-11T05:34:40.341Z,-1.24
2023-02-11T05:37:07.404Z,-1.26
2023-02-11T05:39:34.399Z,-1.26
2023-02-11T05:42:01.418Z,-1.23
2023-02-11T05:44:28.440Z,-1.09
2023-02-11T05:46:55.510Z,-1.04
2023-02-11T05:49:22.540Z,-1.01
2023-02-11T05:51:49.522Z,-1.14
2023-02-11T05:54:16.940Z,-0.97
2023-02-11T05:56:45.006Z,-1.48
2023-02-11T05:59:14.648Z,-0.97
2023-02-11T06:01:41.873Z,-0.92
2023-02-11T06:04:08.860Z,-0.83
2023-02-11T06:06:35.965Z,-0.77
2023-02-11T06:09:03.388Z,-0.72
2023-02-11T06:11:30.649Z,-0.78
2023-02-11T06:13:57.706Z,-0.74
2023-02-11T06:16:24.917Z,-0.65
2023-02-11T06:18:51.968Z,-0.82
2023-02-11T06:21:19.024Z,-0.70
2023-02-11T06:23:46.018Z,-0.72
2023-02-11T06:26:22.268Z,-0.62
2023-02-11T06:28:49.877Z,-1.61
2023-02-11T06:31:17.677Z,-0.58
2023-02-11T06:33:44.789Z,-0.50
2023-02-11T06:36:18.273Z,-0.49
2023-02-11T06:38:45.771Z,-0.44
2023-02-11T06:41:17.816Z,-0.51
2023-02-11T06:43:44.846Z,-0.37
2023-02-11T06:46:12.201Z,-0.37
2023-02-11T06:48:39.270Z,-0.79
2023-02-11T06:51:09.600Z,-0.34
2023-02-11T06:53:38.740Z,-0.32
2023-02-11T06:56:08.429Z,-0.13
2023-02-11T06:58:36.117Z,-0.10
2023-02-11T07:01:10.088Z,-0.07
2023-02-11T07:03:39.148Z,0.05
2023-02-11T07:06:08.233Z,0.16
2023-02-11T07:08:36.397Z,0.11
2023-02-11T07:11:11.415Z,0.25
2023-02-11T07:13:38.529Z,0.22
2023-02-11T07:16:11.017Z,0.25
2023-02-11T07:18:38.181Z,0.43
2023-02-11T07:21:07.146Z,0.36
2023-02-11T07:23:35.521Z,0.51
2023-02-11T07:26:10.805Z,0.54
2023-02-11T07:28:39.076Z,0.56
2023-02-11T07:31:18.439Z,0.09
2023-02-11T07:33:46.032Z,0.48
2023-02-11T07:36:15.195Z,0.48
2023-02-11T07:38:43.569Z,0.48
2023-02-11T07:41:12.767Z,0.50
2023-02-11T07:43:40.386Z,0.19
2023-02-11T07:46:11.507Z,0.57
2023-02-11T07:48:39.175Z,0.85
2023-02-11T07:51:08.975Z,0.94
2023-02-11T07:53:36.417Z,0.89
2023-02-11T07:56:05.625Z,1.08
2023-02-11T07:58:33.482Z,1.22
2023-02-11T08:01:06.554Z,0.97
2023-02-11T08:03:35.448Z,1.28
2023-02-11T08:06:07.159Z,1.22
2023-02-11T08:08:34.155Z,1.36
2023-02-11T08:11:22.577Z,1.38
2023-02-11T08:13:50.507Z,1.58
2023-02-11T08:16:28.183Z,1.75
2023-02-11T08:19:00.194Z,1.92
2023-02-11T08:21:28.166Z,1.98
2023-02-11T08:23:56.169Z,2.22
2023-02-11T08:26:29.120Z,2.46
2023-02-11T08:28:57.674Z,2.81
2023-02-11T08:31:28.105Z,2.98
2023-02-11T08:33:58.058Z,2.96
2023-02-11T08:36:28.675Z,3.04
2023-02-11T08:39:12.123Z,3.15
2023-02-11T08:41:45.456Z,3.21
2023-02-11T08:44:12.905Z,3.21
2023-02-11T08:46:40.045Z,3.03
2023-02-11T08:49:07.056Z,2.91
2023-02-11T08:51:34.290Z,2.79
2023-02-11T08:54:02.213Z,2.50
2023-02-11T08:56:31.549Z,2.47
2023-02-11T08:58:58.806Z,2.46
2023-02-11T09:01:28.820Z,2.32
2023-02-11T09:03:57.103Z,1.82
2023-02-11T09:06:25.711Z,1.58
2023-02-11T09:08:55.068Z,1.76
2023-02-11T09:11:27.583Z,1.58
2023-02-11T09:13:54.867Z,1.05
2023-02-11T09:16:26.331Z,1.30
2023-02-11T09:18:53.917Z,1.29
2023-02-11T09:21:21.044Z,1.28
2023-02-11T09:23:48.440Z,1.23
2023-02-11T09:26:18.435Z,1.18
2023-02-11T09:28:45.866Z,1.00
2023-02-11T09:31:18.396Z,1.11
2023-02-11T09:33:48.209Z,0.70
2023-02-11T09:36:22.478Z,1.20
2023-02-11T09:38:50.237Z,1.08
2023-02-11T09:41:23.175Z,1.04
2023-02-11T09:43:54.885Z,0.98
2023-02-11T09:46:24.354Z,1.01
2023-02-11T09:48:54.300Z,0.95
2023-02-11T09:51:36.284Z,0.70
2023-02-11T09:54:13.982Z,0.91
2023-02-11T09:56:40.981Z,0.84
2023-02-11T09:59:15.358Z,0.87
2023-02-11T10:01:50.565Z,0.81
2023-02-11T10:04:36.453Z,0.78
2023-02-11T10:07:28.903Z,0.99
2023-02-11T10:10:29.706Z,0.99
2023-02-11T10:13:25.977Z,0.90
2023-02-11T10:16:17.220Z,0.90
2023-02-11T10:18:56.674Z,0.66
2023-02-11T10:21:38.575Z,0.50
2023-02-11T10:24:12.549Z,0.64
2023-02-11T10:26:40.949Z,0.53
2023-02-11T10:29:30.907Z,0.52
2023-02-11T10:31:59.594Z,0.52
2023-02-11T10:34:26.724Z,0.51
2023-02-11T10:36:53.922Z,0.45
2023-02-11T10:39:23.942Z,0.28
2023-02-11T10:41:56.553Z,0.32
2023-02-11T10:44:31.354Z,0.44
2023-02-11T10:47:04.665Z,0.47
2023-02-11T10:49:38.025Z,0.48
2023-02-11T10:52:26.298Z,0.59
2023-02-11T10:55:27.925Z,0.59
2023-02-11T10:57:55.065Z,0.46
2023-02-11T11:00:39.264Z,0.38
2023-02-11T11:03:25.615Z,0.58
2023-02-11T11:06:03.997Z,0.57
2023-02-11T11:08:48.414Z,0.63
2023-02-11T11:11:20.871Z,0.64
2023-02-11T11:13:53.909Z,0.70
2023-02-11T11:16:22.811Z,0.59
2023-02-11T11:18:53.172Z,0.64
2023-02-11T11:21:22.128Z,0.66
2023-02-11T11:23:55.950Z,0.78
2023-02-11T11:26:24.736Z,0.72
2023-02-11T11:28:54.778Z,0.74
2023-02-11T11:31:33.812Z,0.76
2023-02-11T11:34:22.110Z,0.75
2023-02-11T11:36:50.652Z,0.88
2023-02-11T11:39:33.756Z,0.65
2023-02-11T11:42:05.482Z,0.77
2023-02-11T11:44:38.367Z,0.91
2023-02-11T11:47:11.250Z,0.98
2023-02-11T11:49:42.083Z,0.79
2023-02-11T11:52:27.265Z,0.94
2023-02-11T11:55:03.059Z,0.86
2023-02-11T11:57:31.473Z,0.57
2023-02-11T11:59:58.861Z,0.73
2023-02-11T12:02:47.419Z,0.76
2023-02-11T12:05:33.393Z,0.80
2023-02-11T12:08:29.234Z,0.91
2023-02-11T12:11:14.076Z,0.90
2023-02-11T12:13:50.156Z,0.91
2023-02-11T12:16:23.536Z,0.66
2023-02-11T12:18:56.363Z,0.75
2023-02-11T12:21:41.937Z,0.73
2023-02-11T12:24:17.638Z,0.65
2023-02-11T12:26:58.145Z,0.06
2023-02-11T12:29:35.194Z,0.50
2023-02-11T12:32:04.831Z,0.60
2023-02-11T12:35:06.302Z,0.44
2023-02-11T12:37:50.258Z,0.37
2023-02-11T12:40:31.551Z,0.36
2023-02-11T12:43:20.389Z,0.29
2023-02-11T12:46:10.042Z,-0.03
2023-02-11T12:48:45.952Z,0.09
2023-02-11T12:51:37.308Z,0.08
2023-02-11T12:54:13.112Z,0.09
2023-02-11T12:56:42.960Z,0.10
2023-02-11T12:59:29.308Z,0.15
2023-02-11T13:01:59.832Z,0.14
2023-02-11T13:04:37.790Z,0.04
2023-02-11T13:07:15.999Z,-0.01
2023-02-11T13:09:50.750Z,0.13
2023-02-11T13:12:37.034Z,-0.04
2023-02-11T13:15:12.799Z,0.06
2023-02-11T13:18:05.721Z,0.10
2023-02-11T13:20:45.557Z,-0.04
2023-02-11T13:23:37.498Z,-0.04
2023-02-11T13:26:16.255Z,-0.60
2023-02-11T13:29:06.105Z,-0.31
2023-02-11T13:31:33.495Z,-0.72
2023-02-11T13:34:01.118Z,-0.25
2023-02-11T13:36:32.984Z,-0.32
2023-02-11T13:39:19.586Z,-0.29
2023-02-11T13:41:52.478Z,-0.46
2023-02-11T13:44:23.866Z,-0.17
2023-02-11T13:46:54.364Z,-0.16
2023-02-11T13:49:29.838Z,-0.15
2023-02-11T13:51:57.903Z,-0.39
2023-02-11T13:54:34.856Z,-0.29
2023-02-11T13:57:20.229Z,-0.17
2023-02-11T13:59:48.602Z,-0.20
2023-02-11T14:02:55.718Z,-0.22
2023-02-11T14:05:45.336Z,-0.32
2023-02-11T14:08:30.776Z,-0.30
2023-02-11T14:11:03.339Z,-0.41
2023-02-11T14:13:57.108Z,-0.50
2023-02-11T14:16:37.610Z,-0.78
2023-02-11T14:19:06.552Z,-0.45
2023-02-11T14:21:42.617Z,-0.67
2023-02-11T14:24:13.175Z,-0.54
2023-02-11T14:26:46.167Z,-0.56
2023-02-11T14:29:34.432Z,-0.56
2023-02-11T14:32:06.183Z,-0.65
2023-02-11T14:34:53.739Z,-0.51
2023-02-11T14:37:20.671Z,-0.52
2023-02-11T14:40:02.885Z,-0.59
2023-02-11T14:42:31.367Z,-0.77
2023-02-11T14:45:05.278Z,-0.62
2023-02-11T14:47:45.785Z,-0.69
2023-02-11T14:50:29.154Z,-0.86
2023-02-11T14:52:57.876Z,-0.78
2023-02-11T14:55:38.257Z,-0.82
2023-02-11T14:58:15.467Z,-0.95
2023-02-11T15:01:01.824Z,-0.84
2023-02-11T15:03:37.238Z,-1.02
2023-02-11T15:06:20.930Z,-0.95
2023-02-11T15:09:01.048Z,-0.98
2023-02-11T15:11:32.377Z,-0.92
2023-02-11T15:14:08.240Z,-0.98
2023-02-11T15:16:40.684Z,-0.99
2023-02-11T15:19:08.076Z,-0.95
2023-02-11T15:21:36.442Z,-1.06
2023-02-11T15:24:20.639Z,-0.93
2023-02-11T15:26:58.497Z,-0.95
2023-02-11T15:29:27.077Z,-1.17
2023-02-11T15:32:10.492Z,-1.05
2023-02-11T15:34:37.776Z,-0.88
2023-02-11T15:37:05.521Z,-0.91
2023-02-11T15:39:37.493Z,-1.02
2023-02-11T15:42:51.713Z,-0.95
2023-02-11T15:45:29.045Z,-1.35
2023-02-11T15:48:23.503Z,-0.80
2023-02-11T15:50:54.278Z,-0.87
2023-02-11T15:53:33.348Z,-1.15
2023-02-11T15:56:26.737Z,-0.89
2023-02-11T15:58:57.531Z,-0.91
2023-02-11T16:01:37.088Z,-0.81
2023-02-11T16:04:05.851Z,-0.87
2023-02-11T16:06:40.008Z,-0.76
2023-02-11T16:09:12.725Z,-0.83
2023-02-11T16:11:48.947Z,-0.80
2023-02-11T16:14:27.712Z,-0.73
2023-02-11T16:16:59.924Z,-0.70
2023-02-11T16:19:28.745Z,-1.77
2023-02-11T16:21:58.558Z,-0.83
2023-02-11T16:24:34.337Z,-0.73
2023-02-11T16:27:03.521Z,-0.89
2023-02-11T16:29:33.296Z,-0.77
2023-02-11T16:32:15.751Z,-0.76
2023-02-11T16:34:42.841Z,-0.91
2023-02-11T16:37:09.968Z,-0.94
2023-02-11T16:39:37.729Z,-0.76
2023-02-11T16:42:07.684Z,-0.77
2023-02-11T16:44:35.983Z,-0.91
2023-02-11T16:47:04.617Z,-0.84
2023-02-11T16:49:36.905Z,-0.62
2023-02-11T16:52:08.051Z,-0.61
2023-02-11T16:54:35.205Z,-0.62
2023-02-11T16:57:06.164Z,-0.78
2023-02-11T16:59:33.161Z,-0.65
2023-02-11T17:02:00.226Z,-0.73
2023-02-11T17:04:30.198Z,-0.72
2023-02-11T17:06:58.677Z,-0.75
2023-02-11T17:09:30.621Z,-0.56
2023-02-11T17:11:58.097Z,-0.58
2023-02-11T17:14:25.245Z,-0.60
2023-02-11T17:16:52.318Z,-0.62
2023-02-11T17:19:21.232Z,-0.62
2023-02-11T17:21:50.628Z,-0.59
2023-02-11T17:24:18.662Z,-0.47
2023-02-11T17:26:46.649Z,-0.47
2023-02-11T17:29:22.387Z,-0.48
2023-02-11T17:31:52.024Z,-0.57
2023-02-11T17:34:20.315Z,-0.52
2023-02-11T17:36:47.327Z,-0.54
2023-02-11T17:39:14.403Z,-0.54
2023-02-11T17:41:41.697Z,-0.40
2023-02-11T17:44:12.566Z,-0.51
2023-02-11T17:46:39.780Z,-0.59
2023-02-11T17:49:06.878Z,-0.45
2023-02-11T17:51:36.834Z,-0.44
2023-02-11T17:54:08.171Z,-0.47
2023-02-11T17:56:36.903Z,-0.42
2023-02-11T17:59:05.185Z,-0.30
2023-02-11T18:01:33.949Z,-0.32
2023-02-11T18:04:01.813Z,-0.37
2023-02-11T18:06:29.325Z,-0.49
2023-02-11T18:08:58.039Z,-0.33
2023-02-11T18:11:26.074Z,-0.56
2023-02-11T18:13:54.684Z,-0.28
2023-02-11T18:16:23.057Z,-0.21
2023-02-11T18:18:50.970Z,-0.32
2023-02-11T18:21:20.601Z,-0.35
2023-02-11T18:23:49.061Z,-0.29
2023-02-11T18:26:18.314Z,-0.20
2023-02-11T18:28:46.072Z,-0.24
2023-02-11T18:31:14.290Z,-0.35
2023-02-11T18:33:42.328Z,-0.32
2023-02-11T18:36:12.364Z,-0.29
2023-02-11T18:38:40.071Z,-0.23
2023-02-11T18:41:08.359Z,-0.09
2023-02-11T18:43:36.276Z,-0.04
2023-02-11T18:46:08.773Z,-0.11
2023-02-11T18:48:36.190Z,-0.23
2023-02-11T18:51:11.978Z,-0.09
2023-02-11T18:53:39.561Z,-0.10
2023-02-11T18:56:17.362Z,-0.15
2023-02-11T18:58:44.817Z,-0.11
2023-02-11T19:01:13.280Z,-0.15
2023-02-11T19:03:40.390Z,-0.20
2023-02-11T19:06:08.064Z,0.06
2023-02-11T19:08:35.143Z,-0.01
2023-02-11T19:11:04.860Z,-0.10
2023-02-11T19:13:31.891Z,-0.19
2023-02-11T19:15:59.203Z,-0.18
2023-02-11T19:18:26.395Z,-0.30
2023-02-11T19:20:53.377Z,-0.31
2023-02-11T19:23:20.419Z,-0.22
2023-02-11T19:25:48.913Z,-0.15
2023-02-11T19:28:16.251Z,-0.13
2023-02-11T19:30:43.350Z,-0.23
2023-02-11T19:33:11.055Z,-0.30
2023-02-11T19:35:38.132Z,-0.13
2023-02-11T19:38:05.806Z,-0.10
2023-02-11T19:40:33.205Z,-0.10
2023-02-11T19:43:00.272Z,-0.03
2023-02-11T19:45:27.329Z,-0.31
2023-02-11T19:47:57.588Z,-0.08
2023-02-11T19:50:25.498Z,-0.02
2023-02-11T19:52:52.516Z,0.06
2023-02-11T19:55:19.620Z,0.09
2023-02-11T19:57:46.721Z,0.10
2023-02-11T20:00:14.330Z,-0.07
2023-02-11T20:02:41.565Z,0.11
2023-02-11T20:05:08.853Z,0.16
2023-02-11T20:07:37.141Z,0.15
2023-02-11T20:10:04.487Z,0.18
2023-02-11T20:12:31.581Z,0.21
2023-02-11T20:14:58.552Z,0.25
2023-02-11T20:17:25.615Z,0.23
2023-02-11T20:19:52.782Z,-0.21
2023-02-11T20:22:19.742Z,0.08
2023-02-11T20:24:46.750Z,0.08
2023-02-11T20:27:13.845Z,0.23
2023-02-11T20:29:41.491Z,0.25
2023-02-11T20:32:08.730Z,0.29
2023-02-11T20:34:35.761Z,0.21
2023-02-11T20:37:04.228Z,0.33
2023-02-11T20:39:31.225Z,0.06
2023-02-11T20:41:58.541Z,0.36
2023-02-11T20:44:25.599Z,0.36
2023-02-11T20:46:54.582Z,0.34
2023-02-11T20:49:24.377Z,0.32
2023-02-11T20:51:53.969Z,0.43
2023-02-11T20:54:23.385Z,0.36
2023-02-11T20:56:51.573Z,0.35
2023-02-11T20:59:19.701Z,0.56
2023-02-11T21:01:53.646Z,0.59
2023-02-11T21:04:29.593Z,0.46
2023-02-11T21:06:59.831Z,0.57
2023-02-11T21:09:29.978Z,0.61
2023-02-11T21:11:57.179Z,0.60
2023-02-11T21:14:25.018Z,0.38
2023-02-11T21:16:52.564Z,0.56
2023-02-11T21:19:20.428Z,0.63
2023-02-11T21:21:47.708Z,0.64
2023-02-11T21:24:15.323Z,0.58
2023-02-11T21:26:42.570Z,0.61
2023-02-11T21:29:10.466Z,0.59
2023-02-11T21:31:38.241Z,0.40
2023-02-11T21:34:06.445Z,0.65
2023-02-11T21:36:34.055Z,0.46
2023-02-11T21:39:01.992Z,0.59
2023-02-11T21:41:29.595Z,0.60
2023-02-11T21:43:56.944Z,0.64
2023-02-11T21:46:24.580Z,0.65
2023-02-11T21:48:51.733Z,0.54
2023-02-11T21:51:22.091Z,0.71
2023-02-11T21:53:56.859Z,0.73
2023-02-11T21:56:26.488Z,0.72
2023-02-11T21:58:55.391Z,0.71
2023-02-11T22:01:26.308Z,0.70
2023-02-11T22:03:53.666Z,0.75
2023-02-11T22:06:26.619Z,0.52
2023-02-11T22:08:54.695Z,0.76
2023-02-11T22:11:22.272Z,0.62
2023-02-11T22:13:54.154Z,0.76
2023-02-11T22:16:21.401Z,0.62
2023-02-11T22:18:48.661Z,0.77
2023-02-11T22:21:18.808Z,0.63
2023-02-11T22:23:46.984Z,0.83
2023-02-11T22:26:17.749Z,0.82
2023-02-11T22:28:45.078Z,0.80
2023-02-11T22:31:18.149Z,0.93
2023-02-11T22:33:45.664Z,0.85
2023-02-11T22:36:25.023Z,0.91
2023-02-11T22:38:53.150Z,0.95
2023-02-11T22:41:21.201Z,0.83
2023-02-11T22:43:48.988Z,0.88
2023-02-11T22:46:18.323Z,0.83
2023-02-11T22:48:46.241Z,0.93
2023-02-11T22:51:16.516Z,0.97
2023-02-11T22:53:46.300Z,0.98
2023-02-11T22:56:15.645Z,0.92
2023-02-11T22:58:43.288Z,1.11
2023-02-11T23:01:10.546Z,1.17
2023-02-11T23:03:37.593Z,1.16
2023-02-11T23:06:05.219Z,1.16
2023-02-11T23:08:33.806Z,1.06
2023-02-11T23:11:08.950Z,1.24
2023-02-11T23:13:38.245Z,1.18
2023-02-11T23:16:08.203Z,0.97
2023-02-11T23:18:37.173Z,1.00
2023-02-11T23:21:08.222Z,1.06
2023-02-11T23:23:36.624Z,0.93
2023-02-11T23:26:05.240Z,1.06
2023-02-11T23:28:32.323Z,0.91
2023-02-11T23:30:59.399Z,0.98
2023-02-11T23:33:26.429Z,1.09
2023-02-11T23:35:53.830Z,1.02
2023-02-11T23:38:21.016Z,1.08
2023-02-11T23:40:47.966Z,0.78
2023-02-11T23:43:15.056Z,0.66
2023-02-11T23:45:42.158Z,1.11
2023-02-11T23:48:09.310Z,1.06
2023-02-11T23:50:39.713Z,0.69
2023-02-11T23:53:06.708Z,1.08
2023-02-11T23:55:39.991Z,0.89
2023-02-11T23:58:07.573Z,1.17
